sensor_id;sensor_type;location;lat;lon;timestamp;P1;durP1;ratioP1;P2;durP2;ratioP2
65073;SDS011;52218;51.224;-2.328;2022-07-12T00:00:35;1.45;;;0.60;;
65073;SDS011;52218;51.224;-2.328;2022-07-12T00:04:17;1.15;;;0.50;;
65073;SDS011;52218;51.224;-2.328;2022-07-12T00:07:59;2.10;;;0.73;;
65073;SDS011;52218;51.224;-2.328;2022-07-12T00:11:41;1.27;;;0.60;;
65073;SDS011;52218;51.224;-2.328;2022-07-12T00:15:23;1.77;;;0.50;;
65073;SDS011;52218;51.224;-2.328;2022-07-12T00:19:05;1.27;;;0.60;;
65073;SDS011;52218;51.224;-2.328;2022-07-12T00:22:48;1.10;;;0.60;;
65073;SDS011;52218;51.224;-2.328;2022-07-12T00:26:30;0.95;;;0.60;;
65073;SDS011;52218;51.224;-2.328;2022-07-12T00:30:12;0.80;;;0.45;;
65073;SDS011;52218;51.224;-2.328;2022-07-12T00:33:54;0.80;;;0.40;;
65073;SDS011;52218;51.224;-2.328;2022-07-12T00:37:39;2.03;;;0.70;;
65073;SDS011;52218;51.224;-2.328;2022-07-12T00:41:22;2.45;;;0.70;;
65073;SDS011;52218;51.224;-2.328;2022-07-12T00:45:04;2.72;;;0.60;;
65073;SDS011;52218;51.224;-2.328;2022-07-12T00:48:47;1.67;;;0.60;;
65073;SDS011;52218;51.224;-2.328;2022-07-12T00:52:29;2.47;;;0.60;;
65073;SDS011;52218;51.224;-2.328;2022-07-12T00:56:12;1.48;;;0.70;;
65073;SDS011;52218;51.224;-2.328;2022-07-12T00:59:54;1.52;;;0.70;;
65073;SDS011;52218;51.224;-2.328;2022-07-12T01:03:36;1.13;;;0.70;;
65073;SDS011;52218;51.224;-2.328;2022-07-12T01:07:19;2.85;;;0.80;;
65073;SDS011;52218;51.224;-2.328;2022-07-12T01:11:01;1.55;;;0.65;;
65073;SDS011;52218;51.224;-2.328;2022-07-12T01:14:44;1.70;;;0.60;;
65073;SDS011;52218;51.224;-2.328;2022-07-12T01:18:27;2.08;;;0.63;;
65073;SDS011;52218;51.224;-2.328;2022-07-12T01:22:10;1.90;;;0.60;;
65073;SDS011;52218;51.224;-2.328;2022-07-12T01:25:52;1.05;;;0.73;;
65073;SDS011;52218;51.224;-2.328;2022-07-12T01:29:41;2.15;;;0.80;;
65073;SDS011;52218;51.224;-2.328;2022-07-12T01:33:23;1.63;;;1.00;;
65073;SDS011;52218;51.224;-2.328;2022-07-12T01:37:07;1.67;;;0.70;;
65073;SDS011;52218;51.224;-2.328;2022-07-12T01:40:51;1.42;;;0.70;;
65073;SDS011;52218;51.224;-2.328;2022-07-12T01:44:33;2.97;;;0.80;;
65073;SDS011;52218;51.224;-2.328;2022-07-12T01:48:15;1.13;;;0.70;;
65073;SDS011;52218;51.224;-2.328;2022-07-12T01:51:58;3.22;;;0.82;;
65073;SDS011;52218;51.224;-2.328;2022-07-12T01:55:40;1.30;;;0.60;;
65073;SDS011;52218;51.224;-2.328;2022-07-12T01:59:22;2.05;;;0.63;;
65073;SDS011;52218;51.224;-2.328;2022-07-12T02:03:05;0.98;;;0.60;;
65073;SDS011;52218;51.224;-2.328;2022-07-12T02:06:47;1.00;;;0.57;;
65073;SDS011;52218;51.224;-2.328;2022-07-12T02:10:30;1.27;;;0.68;;
65073;SDS011;52218;51.224;-2.328;2022-07-12T02:14:12;2.20;;;0.80;;
65073;SDS011;52218;51.224;-2.328;2022-07-12T02:17:55;2.55;;;0.95;;
65073;SDS011;52218;51.224;-2.328;2022-07-12T02:21:37;1.88;;;0.60;;
65073;SDS011;52218;51.224;-2.328;2022-07-12T02:25:19;1.50;;;0.70;;
65073;SDS011;52218;51.224;-2.328;2022-07-12T02:29:01;1.42;;;0.95;;
65073;SDS011;52218;51.224;-2.328;2022-07-12T02:32:43;2.78;;;1.00;;
65073;SDS011;52218;51.224;-2.328;2022-07-12T02:36:26;3.25;;;1.05;;
65073;SDS011;52218;51.224;-2.328;2022-07-12T02:40:09;2.00;;;0.90;;
65073;SDS011;52218;51.224;-2.328;2022-07-12T02:44:11;1.65;;;0.82;;
65073;SDS011;52218;51.224;-2.328;2022-07-12T02:47:53;1.58;;;0.82;;
65073;SDS011;52218;51.224;-2.328;2022-07-12T02:51:35;1.23;;;0.70;;
65073;SDS011;52218;51.224;-2.328;2022-07-12T02:55:17;1.58;;;0.70;;
65073;SDS011;52218;51.224;-2.328;2022-07-12T02:58:59;1.60;;;0.60;;
65073;SDS011;52218;51.224;-2.328;2022-07-12T03:02:41;1.38;;;0.60;;
65073;SDS011;52218;51.224;-2.328;2022-07-12T03:06:26;1.25;;;0.70;;
65073;SDS011;52218;51.224;-2.328;2022-07-12T03:10:08;1.70;;;0.68;;
65073;SDS011;52218;51.224;-2.328;2022-07-12T03:13:50;1.10;;;0.63;;
65073;SDS011;52218;51.224;-2.328;2022-07-12T03:17:32;0.93;;;0.65;;
65073;SDS011;52218;51.224;-2.328;2022-07-12T03:21:14;1.48;;;0.68;;
65073;SDS011;52218;51.224;-2.328;2022-07-12T03:24:57;1.73;;;0.68;;
65073;SDS011;52218;51.224;-2.328;2022-07-12T03:28:39;1.27;;;0.60;;
65073;SDS011;52218;51.224;-2.328;2022-07-12T03:32:21;2.38;;;0.90;;
65073;SDS011;52218;51.224;-2.328;2022-07-12T03:36:03;2.13;;;0.88;;
65073;SDS011;52218;51.224;-2.328;2022-07-12T03:39:48;2.35;;;0.73;;
65073;SDS011;52218;51.224;-2.328;2022-07-12T03:43:30;1.10;;;0.88;;
65073;SDS011;52218;51.224;-2.328;2022-07-12T03:47:12;0.95;;;0.65;;
65073;SDS011;52218;51.224;-2.328;2022-07-12T03:50:54;1.08;;;0.70;;
65073;SDS011;52218;51.224;-2.328;2022-07-12T03:54:37;1.50;;;0.60;;
65073;SDS011;52218;51.224;-2.328;2022-07-12T03:58:19;2.67;;;0.70;;
65073;SDS011;52218;51.224;-2.328;2022-07-12T04:02:01;1.20;;;0.70;;
65073;SDS011;52218;51.224;-2.328;2022-07-12T04:05:43;1.35;;;0.70;;
65073;SDS011;52218;51.224;-2.328;2022-07-12T04:09:25;1.25;;;0.73;;
65073;SDS011;52218;51.224;-2.328;2022-07-12T04:13:07;1.90;;;0.82;;
65073;SDS011;52218;51.224;-2.328;2022-07-12T04:16:49;1.67;;;0.80;;
65073;SDS011;52218;51.224;-2.328;2022-07-12T04:20:31;1.17;;;0.70;;
65073;SDS011;52218;51.224;-2.328;2022-07-12T04:24:13;2.00;;;0.90;;
65073;SDS011;52218;51.224;-2.328;2022-07-12T04:27:55;3.28;;;1.00;;
65073;SDS011;52218;51.224;-2.328;2022-07-12T04:31:37;1.73;;;0.70;;
65073;SDS011;52218;51.224;-2.328;2022-07-12T04:35:19;1.20;;;0.70;;
65073;SDS011;52218;51.224;-2.328;2022-07-12T04:39:01;3.35;;;0.80;;
65073;SDS011;52218;51.224;-2.328;2022-07-12T04:42:44;3.22;;;1.10;;
65073;SDS011;52218;51.224;-2.328;2022-07-12T04:46:26;1.85;;;0.60;;
65073;SDS011;52218;51.224;-2.328;2022-07-12T04:50:08;3.38;;;0.80;;
65073;SDS011;52218;51.224;-2.328;2022-07-12T04:53:50;2.00;;;0.98;;
65073;SDS011;52218;51.224;-2.328;2022-07-12T04:57:32;2.28;;;0.80;;
65073;SDS011;52218;51.224;-2.328;2022-07-12T05:01:16;1.50;;;0.70;;
65073;SDS011;52218;51.224;-2.328;2022-07-12T05:04:58;2.35;;;0.77;;
65073;SDS011;52218;51.224;-2.328;2022-07-12T05:08:41;1.58;;;0.90;;
65073;SDS011;52218;51.224;-2.328;2022-07-12T05:12:23;1.40;;;0.68;;
65073;SDS011;52218;51.224;-2.328;2022-07-12T05:16:07;2.85;;;0.90;;
65073;SDS011;52218;51.224;-2.328;2022-07-12T05:19:50;1.38;;;0.68;;
65073;SDS011;52218;51.224;-2.328;2022-07-12T05:23:32;1.42;;;0.70;;
65073;SDS011;52218;51.224;-2.328;2022-07-12T05:27:14;1.70;;;0.75;;
65073;SDS011;52218;51.224;-2.328;2022-07-12T05:30:56;2.30;;;0.77;;
65073;SDS011;52218;51.224;-2.328;2022-07-12T05:34:38;2.45;;;0.75;;
65073;SDS011;52218;51.224;-2.328;2022-07-12T05:38:20;2.53;;;0.70;;
65073;SDS011;52218;51.224;-2.328;2022-07-12T05:42:02;1.27;;;0.70;;
65073;SDS011;52218;51.224;-2.328;2022-07-12T05:45:44;1.25;;;0.60;;
65073;SDS011;52218;51.224;-2.328;2022-07-12T05:49:26;2.45;;;0.70;;
65073;SDS011;52218;51.224;-2.328;2022-07-12T05:53:08;2.70;;;0.82;;
65073;SDS011;52218;51.224;-2.328;2022-07-12T05:57:02;1.60;;;0.60;;
65073;SDS011;52218;51.224;-2.328;2022-07-12T06:00:45;1.40;;;0.68;;
65073;SDS011;52218;51.224;-2.328;2022-07-12T06:04:27;1.42;;;0.65;;
65073;SDS011;52218;51.224;-2.328;2022-07-12T06:08:09;1.23;;;0.60;;
65073;SDS011;52218;51.224;-2.328;2022-07-12T06:11:52;1.50;;;0.70;;
65073;SDS011;52218;51.224;-2.328;2022-07-12T06:15:33;1.90;;;0.68;;
65073;SDS011;52218;51.224;-2.328;2022-07-12T06:19:15;2.80;;;0.60;;
65073;SDS011;52218;51.224;-2.328;2022-07-12T06:22:57;2.30;;;0.77;;
65073;SDS011;52218;51.224;-2.328;2022-07-12T06:26:40;1.05;;;0.52;;
65073;SDS011;52218;51.224;-2.328;2022-07-12T06:30:22;1.17;;;0.57;;
65073;SDS011;52218;51.224;-2.328;2022-07-12T06:34:04;2.20;;;0.90;;
65073;SDS011;52218;51.224;-2.328;2022-07-12T06:37:46;6.32;;;0.73;;
65073;SDS011;52218;51.224;-2.328;2022-07-12T06:41:28;3.03;;;0.80;;
65073;SDS011;52218;51.224;-2.328;2022-07-12T06:45:10;1.67;;;0.70;;
65073;SDS011;52218;51.224;-2.328;2022-07-12T06:48:52;2.10;;;0.75;;
65073;SDS011;52218;51.224;-2.328;2022-07-12T06:52:34;1.58;;;0.70;;
65073;SDS011;52218;51.224;-2.328;2022-07-12T06:56:17;2.03;;;0.80;;
65073;SDS011;52218;51.224;-2.328;2022-07-12T06:59:59;2.03;;;0.80;;
65073;SDS011;52218;51.224;-2.328;2022-07-12T07:03:41;1.33;;;0.80;;
65073;SDS011;52218;51.224;-2.328;2022-07-12T07:07:23;1.75;;;0.70;;
65073;SDS011;52218;51.224;-2.328;2022-07-12T07:11:05;2.95;;;0.90;;
65073;SDS011;52218;51.224;-2.328;2022-07-12T07:14:47;1.83;;;0.80;;
65073;SDS011;52218;51.224;-2.328;2022-07-12T07:18:29;2.20;;;0.80;;
65073;SDS011;52218;51.224;-2.328;2022-07-12T07:22:12;2.05;;;0.90;;
65073;SDS011;52218;51.224;-2.328;2022-07-12T07:25:54;2.15;;;0.90;;
65073;SDS011;52218;51.224;-2.328;2022-07-12T07:29:36;3.53;;;0.80;;
65073;SDS011;52218;51.224;-2.328;2022-07-12T07:33:37;1.02;;;0.73;;
65073;SDS011;52218;51.224;-2.328;2022-07-12T07:37:18;1.98;;;0.80;;
65073;SDS011;52218;51.224;-2.328;2022-07-12T07:41:00;1.58;;;0.50;;
65073;SDS011;52218;51.224;-2.328;2022-07-12T07:44:42;1.23;;;0.60;;
65073;SDS011;52218;51.224;-2.328;2022-07-12T07:48:44;2.53;;;0.80;;
65073;SDS011;52218;51.224;-2.328;2022-07-12T07:52:26;2.08;;;0.80;;
65073;SDS011;52218;51.224;-2.328;2022-07-12T07:56:08;2.65;;;0.85;;
65073;SDS011;52218;51.224;-2.328;2022-07-12T07:59:50;4.07;;;0.70;;
65073;SDS011;52218;51.224;-2.328;2022-07-12T08:03:32;1.00;;;0.43;;
65073;SDS011;52218;51.224;-2.328;2022-07-12T08:07:14;4.10;;;0.80;;
65073;SDS011;52218;51.224;-2.328;2022-07-12T08:11:16;1.23;;;0.60;;
65073;SDS011;52218;51.224;-2.328;2022-07-12T08:14:58;1.42;;;0.52;;
65073;SDS011;52218;51.224;-2.328;2022-07-12T08:18:40;2.15;;;0.57;;
65073;SDS011;52218;51.224;-2.328;2022-07-12T08:22:22;2.28;;;0.65;;
65073;SDS011;52218;51.224;-2.328;2022-07-12T08:26:03;1.70;;;0.50;;
65073;SDS011;52218;51.224;-2.328;2022-07-12T08:29:45;1.55;;;0.60;;
65073;SDS011;52218;51.224;-2.328;2022-07-12T08:33:27;1.23;;;0.40;;
65073;SDS011;52218;51.224;-2.328;2022-07-12T08:37:10;2.65;;;0.68;;
65073;SDS011;52218;51.224;-2.328;2022-07-12T08:40:52;3.63;;;0.40;;
65073;SDS011;52218;51.224;-2.328;2022-07-12T08:44:34;2.50;;;0.60;;
65073;SDS011;52218;51.224;-2.328;2022-07-12T08:48:16;3.65;;;0.50;;
65073;SDS011;52218;51.224;-2.328;2022-07-12T08:51:58;1.98;;;0.50;;
65073;SDS011;52218;51.224;-2.328;2022-07-12T08:55:40;1.58;;;0.50;;
65073;SDS011;52218;51.224;-2.328;2022-07-12T08:59:22;2.13;;;0.32;;
65073;SDS011;52218;51.224;-2.328;2022-07-12T09:03:04;2.30;;;0.50;;
65073;SDS011;52218;51.224;-2.328;2022-07-12T09:06:48;2.88;;;0.63;;
65073;SDS011;52218;51.224;-2.328;2022-07-12T09:10:31;2.25;;;0.50;;
65073;SDS011;52218;51.224;-2.328;2022-07-12T09:14:17;3.30;;;0.50;;
65073;SDS011;52218;51.224;-2.328;2022-07-12T09:18:01;1.48;;;0.47;;
65073;SDS011;52218;51.224;-2.328;2022-07-12T09:21:54;2.35;;;0.50;;
65073;SDS011;52218;51.224;-2.328;2022-07-12T09:25:39;2.30;;;0.50;;
65073;SDS011;52218;51.224;-2.328;2022-07-12T09:29:25;2.47;;;0.40;;
65073;SDS011;52218;51.224;-2.328;2022-07-12T09:33:08;2.30;;;0.65;;
65073;SDS011;52218;51.224;-2.328;2022-07-12T09:37:08;2.75;;;0.40;;
65073;SDS011;52218;51.224;-2.328;2022-07-12T09:40:50;5.03;;;0.40;;
65073;SDS011;52218;51.224;-2.328;2022-07-12T09:44:33;2.78;;;0.43;;
65073;SDS011;52218;51.224;-2.328;2022-07-12T09:48:15;2.67;;;0.40;;
65073;SDS011;52218;51.224;-2.328;2022-07-12T09:51:58;1.67;;;0.60;;
65073;SDS011;52218;51.224;-2.328;2022-07-12T09:55:41;1.58;;;0.60;;
65073;SDS011;52218;51.224;-2.328;2022-07-12T09:59:27;4.00;;;0.30;;
65073;SDS011;52218;51.224;-2.328;2022-07-12T10:03:10;0.67;;;0.33;;
65073;SDS011;52218;51.224;-2.328;2022-07-12T10:06:54;1.50;;;0.32;;
65073;SDS011;52218;51.224;-2.328;2022-07-12T10:10:36;2.55;;;0.60;;
65073;SDS011;52218;51.224;-2.328;2022-07-12T10:14:19;1.95;;;0.30;;
65073;SDS011;52218;51.224;-2.328;2022-07-12T10:18:02;1.80;;;0.60;;
65073;SDS011;52218;51.224;-2.328;2022-07-12T10:21:47;3.80;;;0.60;;
65073;SDS011;52218;51.224;-2.328;2022-07-12T10:25:33;1.05;;;0.40;;
65073;SDS011;52218;51.224;-2.328;2022-07-12T10:29:18;1.27;;;0.45;;
65073;SDS011;52218;51.224;-2.328;2022-07-12T10:33:01;2.10;;;0.47;;
65073;SDS011;52218;51.224;-2.328;2022-07-12T10:41:00;1.83;;;0.40;;
65073;SDS011;52218;51.224;-2.328;2022-07-12T10:45:11;5.85;;;0.70;;
65073;SDS011;52218;51.224;-2.328;2022-07-12T11:01:07;3.60;;;0.60;;
65073;SDS011;52218;51.224;-2.328;2022-07-12T11:04:54;5.07;;;0.50;;
65073;SDS011;52218;51.224;-2.328;2022-07-12T11:08:55;3.60;;;0.40;;
65073;SDS011;52218;51.224;-2.328;2022-07-12T11:16:24;1.60;;;0.40;;
65073;SDS011;52218;51.224;-2.328;2022-07-12T11:20:08;3.45;;;0.60;;
65073;SDS011;52218;51.224;-2.328;2022-07-12T11:23:52;1.85;;;0.30;;
65073;SDS011;52218;51.224;-2.328;2022-07-12T11:27:35;1.80;;;0.30;;
65073;SDS011;52218;51.224;-2.328;2022-07-12T11:31:18;0.40;;;0.20;;
65073;SDS011;52218;51.224;-2.328;2022-07-12T11:35:00;0.57;;;0.30;;
65073;SDS011;52218;51.224;-2.328;2022-07-12T11:38:43;1.27;;;0.28;;
65073;SDS011;52218;51.224;-2.328;2022-07-12T11:42:26;1.25;;;0.30;;
65073;SDS011;52218;51.224;-2.328;2022-07-12T11:46:09;0.90;;;0.20;;
65073;SDS011;52218;51.224;-2.328;2022-07-12T11:49:52;1.15;;;0.20;;
65073;SDS011;52218;51.224;-2.328;2022-07-12T11:53:36;1.10;;;0.38;;
65073;SDS011;52218;51.224;-2.328;2022-07-12T11:57:20;0.40;;;0.20;;
65073;SDS011;52218;51.224;-2.328;2022-07-12T12:01:04;0.70;;;0.30;;
65073;SDS011;52218;51.224;-2.328;2022-07-12T12:04:52;0.77;;;0.30;;
65073;SDS011;52218;51.224;-2.328;2022-07-12T12:08:35;0.30;;;0.20;;
65073;SDS011;52218;51.224;-2.328;2022-07-12T12:12:17;3.05;;;0.20;;
65073;SDS011;52218;51.224;-2.328;2022-07-12T12:16:03;1.75;;;0.20;;
65073;SDS011;52218;51.224;-2.328;2022-07-12T12:19:46;1.27;;;0.32;;
65073;SDS011;52218;51.224;-2.328;2022-07-12T12:23:28;1.65;;;0.20;;
65073;SDS011;52218;51.224;-2.328;2022-07-12T12:27:22;1.20;;;0.20;;
65073;SDS011;52218;51.224;-2.328;2022-07-12T12:31:05;0.70;;;0.28;;
65073;SDS011;52218;51.224;-2.328;2022-07-12T12:35:07;0.63;;;0.20;;
65073;SDS011;52218;51.224;-2.328;2022-07-12T12:38:50;1.25;;;0.20;;
65073;SDS011;52218;51.224;-2.328;2022-07-12T12:42:37;2.50;;;0.30;;
65073;SDS011;52218;51.224;-2.328;2022-07-12T12:46:19;1.98;;;0.30;;
65073;SDS011;52218;51.224;-2.328;2022-07-12T12:50:01;0.52;;;0.20;;
65073;SDS011;52218;51.224;-2.328;2022-07-12T12:53:43;1.55;;;0.20;;
65073;SDS011;52218;51.224;-2.328;2022-07-12T12:57:36;0.77;;;0.20;;
65073;SDS011;52218;51.224;-2.328;2022-07-12T13:01:18;0.50;;;0.20;;
65073;SDS011;52218;51.224;-2.328;2022-07-12T13:05:00;0.98;;;0.20;;
65073;SDS011;52218;51.224;-2.328;2022-07-12T13:08:43;0.60;;;0.20;;
65073;SDS011;52218;51.224;-2.328;2022-07-12T13:12:25;2.22;;;0.30;;
65073;SDS011;52218;51.224;-2.328;2022-07-12T13:16:07;0.80;;;0.20;;
65073;SDS011;52218;51.224;-2.328;2022-07-12T13:19:49;1.65;;;0.30;;
65073;SDS011;52218;51.224;-2.328;2022-07-12T13:23:35;1.30;;;0.35;;
65073;SDS011;52218;51.224;-2.328;2022-07-12T13:27:17;0.55;;;0.22;;
65073;SDS011;52218;51.224;-2.328;2022-07-12T13:30:59;1.10;;;0.20;;
65073;SDS011;52218;51.224;-2.328;2022-07-12T13:34:41;1.25;;;0.30;;
65073;SDS011;52218;51.224;-2.328;2022-07-12T13:38:23;3.85;;;0.40;;
65073;SDS011;52218;51.224;-2.328;2022-07-12T13:42:07;1.38;;;0.28;;
65073;SDS011;52218;51.224;-2.328;2022-07-12T13:45:50;0.57;;;0.20;;
65073;SDS011;52218;51.224;-2.328;2022-07-12T13:49:32;1.30;;;0.35;;
65073;SDS011;52218;51.224;-2.328;2022-07-12T13:53:14;0.35;;;0.15;;
65073;SDS011;52218;51.224;-2.328;2022-07-12T13:56:56;0.98;;;0.30;;
65073;SDS011;52218;51.224;-2.328;2022-07-12T14:00:38;0.85;;;0.22;;
65073;SDS011;52218;51.224;-2.328;2022-07-12T14:04:21;1.20;;;0.22;;
65073;SDS011;52218;51.224;-2.328;2022-07-12T14:08:03;0.80;;;0.40;;
65073;SDS011;52218;51.224;-2.328;2022-07-12T14:11:45;1.35;;;0.32;;
65073;SDS011;52218;51.224;-2.328;2022-07-12T14:15:27;0.82;;;0.17;;
65073;SDS011;52218;51.224;-2.328;2022-07-12T14:19:18;1.23;;;0.20;;
65073;SDS011;52218;51.224;-2.328;2022-07-12T14:23:00;1.85;;;0.20;;
65073;SDS011;52218;51.224;-2.328;2022-07-12T14:26:42;1.20;;;0.20;;
65073;SDS011;52218;51.224;-2.328;2022-07-12T14:30:24;0.88;;;0.30;;
65073;SDS011;52218;51.224;-2.328;2022-07-12T14:34:06;0.90;;;0.20;;
65073;SDS011;52218;51.224;-2.328;2022-07-12T14:37:48;0.55;;;0.20;;
65073;SDS011;52218;51.224;-2.328;2022-07-12T14:41:31;0.80;;;0.20;;
65073;SDS011;52218;51.224;-2.328;2022-07-12T14:45:13;0.52;;;0.20;;
65073;SDS011;52218;51.224;-2.328;2022-07-12T14:48:55;2.08;;;0.20;;
65073;SDS011;52218;51.224;-2.328;2022-07-12T14:52:38;0.55;;;0.20;;
65073;SDS011;52218;51.224;-2.328;2022-07-12T14:56:20;1.05;;;0.40;;
65073;SDS011;52218;51.224;-2.328;2022-07-12T15:00:02;1.70;;;0.20;;
65073;SDS011;52218;51.224;-2.328;2022-07-12T15:03:45;0.77;;;0.20;;
65073;SDS011;52218;51.224;-2.328;2022-07-12T15:07:27;0.52;;;0.20;;
65073;SDS011;52218;51.224;-2.328;2022-07-12T15:11:09;4.25;;;0.25;;
65073;SDS011;52218;51.224;-2.328;2022-07-12T15:14:51;2.67;;;0.30;;
65073;SDS011;52218;51.224;-2.328;2022-07-12T15:18:38;2.13;;;0.55;;
65073;SDS011;52218;51.224;-2.328;2022-07-12T15:22:20;2.13;;;0.43;;
65073;SDS011;52218;51.224;-2.328;2022-07-12T15:26:02;2.15;;;0.30;;
65073;SDS011;52218;51.224;-2.328;2022-07-12T15:29:44;2.72;;;0.40;;
65073;SDS011;52218;51.224;-2.328;2022-07-12T15:33:29;1.90;;;0.50;;
65073;SDS011;52218;51.224;-2.328;2022-07-12T15:37:11;1.15;;;0.30;;
65073;SDS011;52218;51.224;-2.328;2022-07-12T15:40:56;2.97;;;0.40;;
65073;SDS011;52218;51.224;-2.328;2022-07-12T15:44:38;0.95;;;0.20;;
65073;SDS011;52218;51.224;-2.328;2022-07-12T15:48:20;1.25;;;0.30;;
65073;SDS011;52218;51.224;-2.328;2022-07-12T15:52:02;0.93;;;0.45;;
65073;SDS011;52218;51.224;-2.328;2022-07-12T15:56:04;0.65;;;0.28;;
65073;SDS011;52218;51.224;-2.328;2022-07-12T15:59:49;2.85;;;0.30;;
65073;SDS011;52218;51.224;-2.328;2022-07-12T16:03:31;1.05;;;0.40;;
65073;SDS011;52218;51.224;-2.328;2022-07-12T16:07:14;2.50;;;0.40;;
65073;SDS011;52218;51.224;-2.328;2022-07-12T16:10:57;1.38;;;0.50;;
65073;SDS011;52218;51.224;-2.328;2022-07-12T16:14:39;0.98;;;0.20;;
65073;SDS011;52218;51.224;-2.328;2022-07-12T16:18:21;2.45;;;0.32;;
65073;SDS011;52218;51.224;-2.328;2022-07-12T16:22:06;0.52;;;0.30;;
65073;SDS011;52218;51.224;-2.328;2022-07-12T16:25:48;2.35;;;0.40;;
65073;SDS011;52218;51.224;-2.328;2022-07-12T16:29:30;1.08;;;0.40;;
65073;SDS011;52218;51.224;-2.328;2022-07-12T16:33:14;2.38;;;0.40;;
65073;SDS011;52218;51.224;-2.328;2022-07-12T16:36:56;1.52;;;0.30;;
65073;SDS011;52218;51.224;-2.328;2022-07-12T16:40:38;1.77;;;0.45;;
65073;SDS011;52218;51.224;-2.328;2022-07-12T16:44:21;1.33;;;0.40;;
65073;SDS011;52218;51.224;-2.328;2022-07-12T16:48:03;0.77;;;0.28;;
65073;SDS011;52218;51.224;-2.328;2022-07-12T16:51:45;1.70;;;0.30;;
65073;SDS011;52218;51.224;-2.328;2022-07-12T16:55:27;1.42;;;0.40;;
65073;SDS011;52218;51.224;-2.328;2022-07-12T16:59:09;1.15;;;0.20;;
65073;SDS011;52218;51.224;-2.328;2022-07-12T17:02:51;3.25;;;0.50;;
65073;SDS011;52218;51.224;-2.328;2022-07-12T17:06:34;7.05;;;0.40;;
65073;SDS011;52218;51.224;-2.328;2022-07-12T17:10:16;2.78;;;0.55;;
65073;SDS011;52218;51.224;-2.328;2022-07-12T17:13:59;1.88;;;0.40;;
65073;SDS011;52218;51.224;-2.328;2022-07-12T17:17:42;2.78;;;0.40;;
65073;SDS011;52218;51.224;-2.328;2022-07-12T17:21:24;1.45;;;0.50;;
65073;SDS011;52218;51.224;-2.328;2022-07-12T17:25:06;1.25;;;0.38;;
65073;SDS011;52218;51.224;-2.328;2022-07-12T17:28:54;3.65;;;0.30;;
65073;SDS011;52218;51.224;-2.328;2022-07-12T17:32:36;1.60;;;0.40;;
65073;SDS011;52218;51.224;-2.328;2022-07-12T17:36:20;3.33;;;0.40;;
65073;SDS011;52218;51.224;-2.328;2022-07-12T17:40:03;0.80;;;0.30;;
65073;SDS011;52218;51.224;-2.328;2022-07-12T17:43:46;1.65;;;0.30;;
65073;SDS011;52218;51.224;-2.328;2022-07-12T17:47:28;1.33;;;0.40;;
65073;SDS011;52218;51.224;-2.328;2022-07-12T17:51:10;1.25;;;0.40;;
65073;SDS011;52218;51.224;-2.328;2022-07-12T17:54:52;0.80;;;0.40;;
65073;SDS011;52218;51.224;-2.328;2022-07-12T17:58:34;3.78;;;0.60;;
65073;SDS011;52218;51.224;-2.328;2022-07-12T18:02:20;1.23;;;0.28;;
65073;SDS011;52218;51.224;-2.328;2022-07-12T18:06:03;3.17;;;0.43;;
65073;SDS011;52218;51.224;-2.328;2022-07-12T18:09:45;3.15;;;0.50;;
65073;SDS011;52218;51.224;-2.328;2022-07-12T18:13:27;4.10;;;0.40;;
65073;SDS011;52218;51.224;-2.328;2022-07-12T18:17:28;3.00;;;0.50;;
65073;SDS011;52218;51.224;-2.328;2022-07-12T18:21:28;1.70;;;0.52;;
65073;SDS011;52218;51.224;-2.328;2022-07-12T18:25:10;1.67;;;0.70;;
65073;SDS011;52218;51.224;-2.328;2022-07-12T18:28:55;1.42;;;0.60;;
65073;SDS011;52218;51.224;-2.328;2022-07-12T18:32:38;0.88;;;0.40;;
65073;SDS011;52218;51.224;-2.328;2022-07-12T18:36:20;1.55;;;0.40;;
65073;SDS011;52218;51.224;-2.328;2022-07-12T18:40:03;2.35;;;0.50;;
65073;SDS011;52218;51.224;-2.328;2022-07-12T18:43:45;4.70;;;0.45;;
65073;SDS011;52218;51.224;-2.328;2022-07-12T18:47:27;1.80;;;0.30;;
65073;SDS011;52218;51.224;-2.328;2022-07-12T18:51:09;1.40;;;0.40;;
65073;SDS011;52218;51.224;-2.328;2022-07-12T18:54:51;1.92;;;0.40;;
65073;SDS011;52218;51.224;-2.328;2022-07-12T18:58:33;2.05;;;0.60;;
65073;SDS011;52218;51.224;-2.328;2022-07-12T19:02:15;2.05;;;0.90;;
65073;SDS011;52218;51.224;-2.328;2022-07-12T19:05:57;2.67;;;0.73;;
65073;SDS011;52218;51.224;-2.328;2022-07-12T19:09:39;3.25;;;1.30;;
65073;SDS011;52218;51.224;-2.328;2022-07-12T19:13:23;4.28;;;1.88;;
65073;SDS011;52218;51.224;-2.328;2022-07-12T19:17:05;3.13;;;1.50;;
65073;SDS011;52218;51.224;-2.328;2022-07-12T19:20:46;4.05;;;1.63;;
65073;SDS011;52218;51.224;-2.328;2022-07-12T19:24:28;4.65;;;1.70;;
65073;SDS011;52218;51.224;-2.328;2022-07-12T19:28:11;2.42;;;1.52;;
65073;SDS011;52218;51.224;-2.328;2022-07-12T19:31:53;4.15;;;1.50;;
65073;SDS011;52218;51.224;-2.328;2022-07-12T19:35:35;2.03;;;0.98;;
65073;SDS011;52218;51.224;-2.328;2022-07-12T19:39:17;3.70;;;1.00;;
65073;SDS011;52218;51.224;-2.328;2022-07-12T19:42:59;1.90;;;1.02;;
65073;SDS011;52218;51.224;-2.328;2022-07-12T19:46:41;2.78;;;0.88;;
65073;SDS011;52218;51.224;-2.328;2022-07-12T19:50:23;1.33;;;0.50;;
65073;SDS011;52218;51.224;-2.328;2022-07-12T19:54:05;2.15;;;0.50;;
65073;SDS011;52218;51.224;-2.328;2022-07-12T19:57:47;2.80;;;0.55;;
65073;SDS011;52218;51.224;-2.328;2022-07-12T20:01:29;1.83;;;0.30;;
65073;SDS011;52218;51.224;-2.328;2022-07-12T20:05:12;0.73;;;0.30;;
65073;SDS011;52218;51.224;-2.328;2022-07-12T20:08:54;2.75;;;0.50;;
65073;SDS011;52218;51.224;-2.328;2022-07-12T20:12:36;1.23;;;0.30;;
65073;SDS011;52218;51.224;-2.328;2022-07-12T20:16:18;2.65;;;0.50;;
65073;SDS011;52218;51.224;-2.328;2022-07-12T20:20:01;2.15;;;0.40;;
65073;SDS011;52218;51.224;-2.328;2022-07-12T20:23:43;1.30;;;0.40;;
65073;SDS011;52218;51.224;-2.328;2022-07-12T20:27:26;3.30;;;0.40;;
65073;SDS011;52218;51.224;-2.328;2022-07-12T20:31:08;2.30;;;0.50;;
65073;SDS011;52218;51.224;-2.328;2022-07-12T20:34:50;1.67;;;0.50;;
65073;SDS011;52218;51.224;-2.328;2022-07-12T20:38:31;1.02;;;0.40;;
65073;SDS011;52218;51.224;-2.328;2022-07-12T20:42:14;1.40;;;0.40;;
65073;SDS011;52218;51.224;-2.328;2022-07-12T20:45:56;2.13;;;0.50;;
65073;SDS011;52218;51.224;-2.328;2022-07-12T20:49:38;2.25;;;0.60;;
65073;SDS011;52218;51.224;-2.328;2022-07-12T20:53:20;1.20;;;0.50;;
65073;SDS011;52218;51.224;-2.328;2022-07-12T20:57:03;1.33;;;0.55;;
65073;SDS011;52218;51.224;-2.328;2022-07-12T21:00:45;1.63;;;0.70;;
65073;SDS011;52218;51.224;-2.328;2022-07-12T21:04:28;3.33;;;0.90;;
65073;SDS011;52218;51.224;-2.328;2022-07-12T21:08:10;1.98;;;0.80;;
65073;SDS011;52218;51.224;-2.328;2022-07-12T21:11:52;2.70;;;0.70;;
65073;SDS011;52218;51.224;-2.328;2022-07-12T21:15:36;1.27;;;0.60;;
65073;SDS011;52218;51.224;-2.328;2022-07-12T21:19:18;3.25;;;0.90;;
65073;SDS011;52218;51.224;-2.328;2022-07-12T21:23:00;4.28;;;0.70;;
65073;SDS011;52218;51.224;-2.328;2022-07-12T21:26:42;2.45;;;0.93;;
65073;SDS011;52218;51.224;-2.328;2022-07-12T21:30:24;4.25;;;0.90;;
65073;SDS011;52218;51.224;-2.328;2022-07-12T21:34:06;4.70;;;1.00;;
65073;SDS011;52218;51.224;-2.328;2022-07-12T21:37:48;3.38;;;0.80;;
65073;SDS011;52218;51.224;-2.328;2022-07-12T21:41:30;2.90;;;0.80;;
65073;SDS011;52218;51.224;-2.328;2022-07-12T21:45:12;2.08;;;0.70;;
65073;SDS011;52218;51.224;-2.328;2022-07-12T21:48:54;2.10;;;0.70;;
65073;SDS011;52218;51.224;-2.328;2022-07-12T21:52:36;2.08;;;0.70;;
65073;SDS011;52218;51.224;-2.328;2022-07-12T21:56:18;2.03;;;0.95;;
65073;SDS011;52218;51.224;-2.328;2022-07-12T22:00:00;4.55;;;1.00;;
65073;SDS011;52218;51.224;-2.328;2022-07-12T22:03:42;1.90;;;0.70;;
65073;SDS011;52218;51.224;-2.328;2022-07-12T22:07:24;2.65;;;0.73;;
65073;SDS011;52218;51.224;-2.328;2022-07-12T22:11:06;2.22;;;0.90;;
65073;SDS011;52218;51.224;-2.328;2022-07-12T22:14:48;2.35;;;0.90;;
65073;SDS011;52218;51.224;-2.328;2022-07-12T22:18:30;2.20;;;0.80;;
65073;SDS011;52218;51.224;-2.328;2022-07-12T22:22:13;1.50;;;0.82;;